Time;durP1;ratioP1;P1;durP2;ratioP2;P2;SDS_P1;SDS_P2;PMS_P1;PMS_P2;Temp;Humidity;BMP_temperature;BMP_pressure;BME280_temperature;BME280_humidity;BME280_pressure;Samples;Min_cycle;Max_cycle;Signal;HPM_P1;HPM_P2
2021/01/22 00:01:03;;;;;;;3.57;1.13;;;10.00;76.30;;;;;;5042559;28;20429;-69
2021/01/22 00:03:28;;;;;;;1.50;0.90;;;10.00;76.40;;;;;;5041920;28;20182;-70
2021/01/22 00:05:54;;;;;;;4.10;1.60;;;10.00;76.30;;;;;;5041381;28;20451;-74
2021/01/22 00:08:20;;;;;;;2.67;1.00;;;10.00;76.30;;;;;;5037192;28;20194;-71
2021/01/22 00:10:45;;;;;;;2.60;0.90;;;10.00;76.20;;;;;;5038679;28;20188;-72
2021/01/22 00:13:11;;;;;;;5.30;1.30;;;10.10;75.90;;;;;;5033062;28;20158;-72
2021/01/22 00:15:37;;;;;;;4.73;1.03;;;10.10;75.60;;;;;;5037922;28;20173;-70
2021/01/22 00:18:05;;;;;;;4.80;1.00;;;10.10;75.40;;;;;;5037142;28;20182;-71
2021/01/22 00:20:30;;;;;;;2.30;1.27;;;10.10;75.10;;;;;;5041497;28;20424;-74
2021/01/22 00:22:56;;;;;;;1.30;0.80;;;10.10;75.10;;;;;;5015663;28;20855;-70
2021/01/22 00:25:22;;;;;;;3.50;1.17;;;10.20;75.00;;;;;;5019785;28;20182;-72
2021/01/22 00:27:47;;;;;;;1.63;0.70;;;10.20;74.60;;;;;;5020397;28;20202;-71
2021/01/22 00:30:14;;;;;;;4.90;1.17;;;10.20;74.10;;;;;;5032799;28;20174;-71
2021/01/22 00:32:39;;;;;;;2.20;1.20;;;10.20;74.00;;;;;;5041095;28;20189;-71
2021/01/22 00:35:06;;;;;;;6.73;2.00;;;10.20;73.80;;;;;;5041541;28;20409;-72
2021/01/22 00:37:31;;;;;;;8.83;1.40;;;10.20;73.00;;;;;;5034929;28;20201;-70
2021/01/22 00:39:57;;;;;;;5.07;1.53;;;10.30;72.40;;;;;;5035200;28;20413;-72
2021/01/22 00:42:23;;;;;;;6.83;1.67;;;10.30;72.00;;;;;;5034854;28;20543;-70
2021/01/22 00:44:49;;;;;;;2.60;1.20;;;10.30;71.30;;;;;;5017234;28;20178;-71
2021/01/22 00:47:15;;;;;;;7.37;1.60;;;10.40;70.70;;;;;;5034793;28;20452;-73
2021/01/22 00:49:40;;;;;;;4.30;1.87;;;10.40;70.40;;;;;;5034607;28;20289;-71
2021/01/22 00:52:06;;;;;;;3.20;1.23;;;10.50;70.20;;;;;;5016725;28;20187;-73
2021/01/22 00:54:32;;;;;;;8.63;1.70;;;10.50;70.20;;;;;;5034846;28;20253;-71
2021/01/22 00:57:15;;;;;;;6.47;1.00;;;10.50;70.00;;;;;;5020052;28;20178;-72
2021/01/22 00:59:42;;;;;;;4.87;1.77;;;10.50;69.90;;;;;;5017356;28;20417;-71
2021/01/22 01:02:09;;;;;;;6.70;1.07;;;10.50;70.80;;;;;;5034850;28;20252;-71
2021/01/22 01:04:34;;;;;;;11.33;1.43;;;10.50;70.00;;;;;;5034915;28;20443;-70
2021/01/22 01:07:09;;;;;;;5.23;1.43;;;10.50;70.10;;;;;;5034759;28;20957;-71
2021/01/22 01:09:35;;;;;;;6.00;1.60;;;10.60;70.40;;;;;;5037360;28;20445;-74
2021/01/22 01:12:20;;;;;;;2.23;1.20;;;10.50;70.40;;;;;;5034428;28;20460;-73
2021/01/22 01:15:06;;;;;;;1.77;0.83;;;10.50;70.70;;;;;;5016435;28;20413;-73
2021/01/22 01:17:40;;;;;;;2.00;1.37;;;10.50;70.80;;;;;;5023614;28;20416;-71
2021/01/22 01:20:06;;;;;;;4.80;1.67;;;10.50;71.10;;;;;;5054433;28;20491;-72
2021/01/22 01:22:33;;;;;;;2.90;1.00;;;10.50;71.20;;;;;;5054395;28;20557;-72
2021/01/22 01:24:59;;;;;;;3.20;0.90;;;10.50;71.30;;;;;;5036277;28;20401;-72
2021/01/22 01:27:25;;;;;;;3.27;1.20;;;10.50;71.60;;;;;;5054132;28;20396;-72
2021/01/22 01:29:50;;;;;;;1.50;0.70;;;10.40;71.60;;;;;;5037511;28;20440;-72
2021/01/22 01:32:16;;;;;;;2.13;1.13;;;10.40;71.90;;;;;;5034388;28;20484;-76
2021/01/22 01:34:42;;;;;;;5.03;1.07;;;10.40;72.30;;;;;;5034402;28;20163;-71
2021/01/22 01:37:07;;;;;;;3.37;0.90;;;10.40;72.60;;;;;;5033975;28;20163;-69
2021/01/22 01:39:33;;;;;;;1.57;0.80;;;10.40;72.60;;;;;;5034545;28;20174;-71
2021/01/22 01:41:59;;;;;;;4.10;0.80;;;10.40;72.90;;;;;;5034373;28;20191;-70
2021/01/22 01:44:24;;;;;;;5.00;1.00;;;10.40;72.90;;;;;;5015887;28;20176;-72
2021/01/22 01:46:50;;;;;;;4.73;0.70;;;10.40;73.10;;;;;;5033873;28;20636;-70
2021/01/22 01:49:16;;;;;;;1.67;0.70;;;10.40;73.20;;;;;;5034371;28;20716;-74
2021/01/22 01:51:41;;;;;;;2.43;0.90;;;10.30;73.40;;;;;;5033579;28;20202;-72
2021/01/22 01:54:07;;;;;;;3.23;0.70;;;10.30;73.60;;;;;;5033501;28;20173;-73
2021/01/22 01:56:33;;;;;;;7.00;0.80;;;10.30;73.90;;;;;;5033579;28;20158;-71
2021/01/22 01:59:00;;;;;;;2.10;0.60;;;10.30;74.00;;;;;;5015589;28;20409;-72
2021/01/22 02:01:26;;;;;;;3.30;0.77;;;10.30;74.30;;;;;;5033497;28;20628;-72
2021/01/22 02:03:52;;;;;;;2.60;0.67;;;10.30;74.70;;;;;;5033572;28;20423;-72
2021/01/22 02:06:18;;;;;;;3.83;0.80;;;10.20;74.90;;;;;;5033803;28;20405;-73
2021/01/22 02:08:44;;;;;;;1.13;0.70;;;10.20;75.30;;;;;;5033238;28;20483;-72
2021/01/22 02:11:12;;;;;;;1.30;0.63;;;10.20;76.60;;;;;;5016341;28;20803;-73
2021/01/22 02:13:39;;;;;;;3.23;0.97;;;10.10;78.70;;;;;;5035084;28;20451;-73
2021/01/22 02:16:05;;;;;;;2.23;0.93;;;9.70;78.50;;;;;;5035141;28;20516;-72
2021/01/22 02:18:32;;;;;;;3.23;0.73;;;9.30;80.50;;;;;;5035351;28;20467;-72
2021/01/22 02:21:09;;;;;;;1.10;0.60;;;9.00;81.60;;;;;;5033978;28;20449;-72
2021/01/22 02:23:40;;;;;;;2.13;0.50;;;8.80;82.80;;;;;;5035123;28;20412;-73
2021/01/22 02:26:27;;;;;;;2.13;0.70;;;8.50;82.70;;;;;;5034581;28;20491;-72
2021/01/22 02:29:04;;;;;;;1.20;0.80;;;8.30;83.40;;;;;;5033457;28;20822;-71
2021/01/22 02:31:34;;;;;;;2.57;1.00;;;8.20;84.00;;;;;;5033958;28;20949;-74
2021/01/22 02:34:03;;;;;;;1.73;0.70;;;8.10;85.10;;;;;;5035585;28;20455;-72
2021/01/22 02:36:33;;;;;;;0.93;0.63;;;7.90;85.50;;;;;;5035479;28;20421;-71
2021/01/22 02:39:01;;;;;;;3.43;0.93;;;7.80;86.20;;;;;;5033977;28;20504;-73
2021/01/22 02:41:29;;;;;;;1.20;0.60;;;7.80;86.60;;;;;;5034504;28;20842;-71
2021/01/22 02:43:56;;;;;;;1.60;0.83;;;7.70;86.70;;;;;;5020758;28;20421;-71
2021/01/22 02:46:22;;;;;;;1.60;0.73;;;7.70;86.80;;;;;;5033591;28;20957;-70
2021/01/22 02:48:49;;;;;;;1.20;0.80;;;7.60;86.60;;;;;;5032913;28;20445;-72
2021/01/22 02:51:15;;;;;;;1.00;0.70;;;7.60;86.60;;;;;;5014577;28;20813;-75
2021/01/22 02:53:41;;;;;;;2.30;1.40;;;7.50;86.70;;;;;;5033132;28;20437;-75
2021/01/22 02:56:14;;;;;;;2.50;1.43;;;7.50;86.40;;;;;;5032209;28;20471;-70
2021/01/22 02:59:06;;;;;;;1.93;1.30;;;7.30;85.80;;;;;;5032502;28;20478;-72
2021/01/22 03:01:38;;;;;;;2.47;1.47;;;7.20;85.30;;;;;;5032334;28;20428;-73
2021/01/22 03:04:09;;;;;;;2.30;1.40;;;7.10;84.80;;;;;;5014526;28;20409;-70
2021/01/22 03:06:42;;;;;;;3.53;1.50;;;6.90;83.70;;;;;;5032171;28;20408;-71
2021/01/22 03:09:18;;;;;;;1.93;1.30;;;6.70;83.20;;;;;;5046006;28;20507;-73
2021/01/22 03:11:48;;;;;;;2.10;1.80;;;6.60;83.90;;;;;;5030874;28;20440;-70
2021/01/22 03:14:14;;;;;;;2.10;1.80;;;6.50;83.70;;;;;;5014216;28;20512;-71
2021/01/22 03:16:40;;;;;;;2.57;1.67;;;6.40;84.00;;;;;;5032566;28;20405;-71
2021/01/22 03:19:06;;;;;;;2.37;1.90;;;6.30;84.10;;;;;;5032102;28;20421;-72
2021/01/22 03:21:32;;;;;;;2.57;1.80;;;6.30;84.40;;;;;;5034606;28;20448;-72
2021/01/22 03:23:58;;;;;;;2.00;1.50;;;6.20;84.80;;;;;;5032789;28;20273;-72
2021/01/22 03:26:24;;;;;;;2.47;1.80;;;6.10;84.80;;;;;;5032675;28;20170;-71
2021/01/22 03:28:50;;;;;;;1.83;1.30;;;6.10;85.20;;;;;;5031663;28;20591;-72
2021/01/22 03:31:15;;;;;;;2.33;1.37;;;6.10;84.80;;;;;;5032026;28;20451;-72
2021/01/22 03:33:41;;;;;;;2.30;1.90;;;6.10;84.90;;;;;;5031998;28;20197;-73
2021/01/22 03:36:07;;;;;;;2.17;1.80;;;6.00;84.90;;;;;;5032129;28;20220;-70
2021/01/22 03:38:34;;;;;;;3.83;2.30;;;6.00;84.90;;;;;;5013855;28;20182;-72
2021/01/22 03:41:00;;;;;;;5.00;2.97;;;6.00;85.60;;;;;;5014200;28;20455;-70
2021/01/22 03:43:25;;;;;;;3.13;2.83;;;6.00;85.80;;;;;;5031602;28;20448;-70
2021/01/22 03:45:51;;;;;;;4.33;2.93;;;5.90;85.90;;;;;;5045265;28;20479;-72
2021/01/22 03:48:17;;;;;;;4.07;2.90;;;5.90;85.80;;;;;;5037122;28;20228;-71
2021/01/22 03:50:42;;;;;;;4.10;3.30;;;5.90;86.10;;;;;;5033190;28;20217;-70
2021/01/22 03:53:10;;;;;;;5.20;4.20;;;5.90;86.30;;;;;;5051946;28;20170;-72
2021/01/22 03:55:35;;;;;;;5.43;3.70;;;5.80;86.50;;;;;;5051659;28;20170;-70
2021/01/22 03:58:01;;;;;;;4.20;3.53;;;5.80;86.70;;;;;;5051039;28;20415;-72
2021/01/22 04:00:27;;;;;;;5.20;3.70;;;5.70;86.60;;;;;;5051503;28;20173;-71
2021/01/22 04:02:53;;;;;;;5.43;3.80;;;5.70;86.80;;;;;;5051161;28;20416;-71
2021/01/22 04:05:19;;;;;;;5.37;4.10;;;5.60;87.10;;;;;;5032941;28;20185;-72
2021/01/22 04:07:44;;;;;;;4.30;3.90;;;5.70;87.60;;;;;;5050014;28;20178;-72
2021/01/22 04:10:10;;;;;;;5.77;4.07;;;5.70;87.40;;;;;;5051444;28;20990;-72
2021/01/22 04:12:36;;;;;;;4.30;3.90;;;5.70;87.50;;;;;;5053271;28;20219;-72
2021/01/22 04:15:05;;;;;;;4.87;4.30;;;5.70;87.10;;;;;;5053175;28;20404;-70
2021/01/22 04:17:31;;;;;;;5.57;4.80;;;5.70;87.20;;;;;;5046431;28;20194;-70
2021/01/22 04:19:57;;;;;;;4.77;4.27;;;5.60;86.80;;;;;;5032894;28;21115;-72
2021/01/22 04:22:23;;;;;;;5.57;4.30;;;5.60;86.90;;;;;;5031911;28;20268;-71
2021/01/22 04:24:49;;;;;;;6.30;4.63;;;5.70;87.20;;;;;;5013222;28;20843;-72
2021/01/22 04:27:14;;;;;;;5.53;4.17;;;5.70;87.50;;;;;;5012616;28;20171;-70
2021/01/22 04:29:40;;;;;;;4.50;3.80;;;5.60;87.00;;;;;;5013211;28;20191;-73
2021/01/22 04:32:08;;;;;;;3.67;3.23;;;5.60;86.80;;;;;;5030869;28;20194;-73
2021/01/22 04:34:35;;;;;;;5.23;4.70;;;5.60;86.60;;;;;;5012849;28;20189;-72
2021/01/22 04:37:01;;;;;;;4.63;3.93;;;5.50;86.60;;;;;;5032559;28;21032;-70
2021/01/22 04:39:26;;;;;;;4.80;4.40;;;5.50;86.80;;;;;;5040406;28;20421;-69
2021/01/22 04:41:53;;;;;;;4.83;3.77;;;5.50;87.20;;;;;;5030289;28;20498;-71
2021/01/22 04:44:19;;;;;;;4.30;3.17;;;5.50;86.60;;;;;;5047821;28;20782;-69
2021/01/22 04:46:45;;;;;;;5.43;3.20;;;5.50;86.70;;;;;;5050721;28;20936;-70
2021/01/22 04:49:11;;;;;;;3.73;3.10;;;5.50;86.70;;;;;;5032860;28;20464;-71
2021/01/22 04:51:37;;;;;;;6.17;3.53;;;5.50;86.70;;;;;;5034788;28;20836;-71
2021/01/22 04:54:17;;;;;;;4.57;3.57;;;5.50;86.80;;;;;;5023446;28;20471;-70
2021/01/22 04:56:46;;;;;;;6.13;2.90;;;5.60;86.90;;;;;;5015529;28;20421;-70
2021/01/22 04:59:21;;;;;;;4.47;3.10;;;5.50;86.40;;;;;;5023207;28;20493;-72
2021/01/22 05:01:48;;;;;;;4.63;3.30;;;5.50;86.50;;;;;;5053422;28;20423;-72
2021/01/22 05:04:15;;;;;;;3.30;3.00;;;5.50;86.60;;;;;;5033592;28;20408;-72
2021/01/22 05:06:42;;;;;;;4.80;3.97;;;5.50;86.70;;;;;;5048169;28;20558;-71
2021/01/22 05:09:08;;;;;;;4.33;2.67;;;5.50;87.10;;;;;;5038929;28;20455;-72
2021/01/22 05:11:34;;;;;;;2.73;2.30;;;5.50;87.10;;;;;;5050695;28;20420;-73
2021/01/22 05:14:01;;;;;;;3.40;2.20;;;5.50;86.70;;;;;;5037965;28;20163;-72
2021/01/22 05:16:26;;;;;;;4.60;3.10;;;5.50;86.90;;;;;;5030427;28;20239;-71
2021/01/22 05:18:52;;;;;;;5.00;3.20;;;5.50;86.70;;;;;;5032065;28;20420;-71
2021/01/22 05:21:19;;;;;;;4.57;3.63;;;5.50;86.70;;;;;;5016136;28;20186;-71
2021/01/22 05:23:45;;;;;;;6.20;3.87;;;5.60;87.00;;;;;;5016309;28;20178;-73
2021/01/22 05:26:13;;;;;;;8.30;4.80;;;5.50;87.00;;;;;;5046789;28;20420;-73
2021/01/22 05:28:45;;;;;;;4.97;3.77;;;5.50;86.60;;;;;;5053567;28;20201;-71
2021/01/22 05:31:13;;;;;;;4.20;3.70;;;5.50;86.50;;;;;;5053691;28;20450;-71
2021/01/22 05:33:39;;;;;;;4.67;3.80;;;5.50;86.70;;;;;;5053917;28;20766;-71
2021/01/22 05:36:32;;;;;;;6.70;3.10;;;5.50;86.90;;;;;;5053150;28;20885;-70
2021/01/22 05:38:59;;;;;;;8.40;4.57;;;5.50;86.80;;;;;;5036999;28;20409;-71
2021/01/22 05:41:26;;;;;;;6.00;4.00;;;5.50;87.00;;;;;;5056108;28;20432;-70
2021/01/22 05:43:51;;;;;;;4.93;3.63;;;5.50;87.10;;;;;;5033906;28;20779;-72
2021/01/22 05:46:22;;;;;;;9.93;3.97;;;5.50;87.00;;;;;;5034254;28;20413;-73
2021/01/22 05:49:05;;;;;;;5.00;4.00;;;5.50;86.90;;;;;;5034258;28;20282;-69
2021/01/22 05:51:33;;;;;;;6.80;4.30;;;5.50;86.90;;;;;;5034030;28;20427;-72
2021/01/22 05:53:59;;;;;;;7.17;4.83;;;5.50;86.80;;;;;;5034150;28;20891;-75
2021/01/22 05:56:25;;;;;;;6.60;4.13;;;5.50;87.00;;;;;;5034243;28;20469;-72
2021/01/22 05:58:51;;;;;;;11.37;5.80;;;5.50;86.80;;;;;;5033536;28;20175;-71
2021/01/22 06:01:19;;;;;;;7.00;4.70;;;5.50;86.90;;;;;;5033385;28;20214;-70
2021/01/22 06:03:52;;;;;;;8.03;4.17;;;5.50;86.90;;;;;;5034280;28;20175;-74
2021/01/22 06:06:19;;;;;;;8.17;3.50;;;5.50;86.80;;;;;;5033506;28;20413;-73
2021/01/22 06:08:53;;;;;;;7.13;4.40;;;5.50;86.80;;;;;;5020788;28;20544;-70
2021/01/22 06:11:30;;;;;;;13.90;4.40;;;5.50;86.90;;;;;;5048517;28;20460;-71
2021/01/22 06:13:57;;;;;;;6.73;4.43;;;5.50;86.90;;;;;;5052746;28;20411;-70
2021/01/22 06:16:26;;;;;;;8.03;6.37;;;5.50;86.80;;;;;;5054241;28;20411;-70
2021/01/22 06:18:59;;;;;;;6.90;6.20;;;5.50;86.60;;;;;;5052955;28;20904;-73
2021/01/22 06:21:27;;;;;;;8.17;4.10;;;5.50;86.50;;;;;;5053158;28;20478;-73
2021/01/22 06:23:54;;;;;;;6.03;4.77;;;5.50;86.20;;;;;;5052423;28;20408;-70
2021/01/22 06:26:21;;;;;;;5.67;4.83;;;5.50;86.40;;;;;;5034606;28;20420;-70
2021/01/22 06:28:51;;;;;;;6.87;3.80;;;5.50;86.20;;;;;;5052654;28;20459;-72
2021/01/22 06:31:18;;;;;;;6.23;3.70;;;5.50;86.00;;;;;;5051730;28;20444;-70
2021/01/22 06:33:47;;;;;;;8.80;4.70;;;5.50;86.00;;;;;;5053339;28;20412;-71
2021/01/22 06:36:14;;;;;;;8.23;4.30;;;5.50;85.70;;;;;;5052698;28;20490;-69
2021/01/22 06:38:41;;;;;;;6.30;3.77;;;5.50;85.70;;;;;;5052385;28;20909;-71
2021/01/22 06:41:08;;;;;;;5.27;3.77;;;5.50;85.60;;;;;;5051217;28;20436;-73
2021/01/22 06:43:38;;;;;;;7.43;4.00;;;5.50;85.40;;;;;;5052838;28;20408;-72
2021/01/22 06:46:16;;;;;;;8.80;4.80;;;5.60;85.50;;;;;;5026310;28;20425;-74
2021/01/22 06:49:00;;;;;;;7.77;4.70;;;5.50;85.30;;;;;;5049996;28;20472;-70
2021/01/22 06:51:30;;;;;;;5.70;4.37;;;5.60;85.40;;;;;;5047936;28;20498;-72
2021/01/22 06:54:20;;;;;;;6.17;4.53;;;5.60;85.40;;;;;;5035053;28;20494;-72
2021/01/22 06:56:51;;;;;;;10.20;6.13;;;5.60;84.90;;;;;;5032388;28;20420;-72
2021/01/22 06:59:24;;;;;;;6.50;5.00;;;5.60;84.90;;;;;;5038586;28;21074;-72
2021/01/22 07:01:52;;;;;;;8.63;5.30;;;5.60;84.80;;;;;;5031234;28;20444;-78
2021/01/22 07:04:32;;;;;;;11.40;4.63;;;5.60;84.90;;;;;;5041208;28;20425;-78
2021/01/22 07:07:01;;;;;;;8.13;4.70;;;5.70;85.00;;;;;;5022675;28;20408;-78
2021/01/22 07:09:53;;;;;;;8.00;4.00;;;5.60;84.60;;;;;;5040590;28;20456;-79
2021/01/22 07:12:38;;;;;;;3.77;3.00;;;5.70;84.60;;;;;;5020267;28;20444;-79
2021/01/22 07:15:19;;;;;;;6.73;3.70;;;5.70;84.30;;;;;;5038991;28;20413;-78
2021/01/22 07:17:48;;;;;;;7.63;4.13;;;5.70;84.30;;;;;;5044312;28;20452;-79
2021/01/22 07:20:14;;;;;;;6.70;4.03;;;5.70;84.10;;;;;;5068376;28;20504;-78
2021/01/22 07:22:57;;;;;;;9.23;4.80;;;5.70;83.90;;;;;;5072383;28;20404;-79
2021/01/22 07:25:44;;;;;;;5.67;3.50;;;5.70;83.90;;;;;;5061666;28;20233;-79
2021/01/22 07:28:12;;;;;;;5.50;3.90;;;5.80;84.00;;;;;;5040871;28;20471;-78
2021/01/22 07:30:42;;;;;;;3.97;3.23;;;5.70;83.70;;;;;;5056657;28;20451;-78
2021/01/22 07:33:29;;;;;;;4.70;3.37;;;5.80;83.70;;;;;;5058423;28;20415;-78
2021/01/22 07:36:19;;;;;;;6.30;2.90;;;5.80;83.60;;;;;;5023577;28;20421;-79
2021/01/22 07:38:50;;;;;;;5.97;3.03;;;5.80;83.50;;;;;;5043011;28;20413;-78
2021/01/22 07:41:21;;;;;;;4.90;2.63;;;5.80;83.50;;;;;;5038168;28;20441;-77
2021/01/22 07:43:59;;;;;;;5.80;2.83;;;5.80;83.50;;;;;;5047079;28;20432;-78
2021/01/22 07:46:25;;;;;;;9.17;2.83;;;5.90;83.20;;;;;;5070636;28;20436;-78
2021/01/22 07:48:50;;;;;;;3.60;2.03;;;5.90;83.00;;;;;;5066758;28;20515;-79
2021/01/22 07:51:39;;;;;;;3.20;1.87;;;5.90;82.80;;;;;;5060844;28;20198;-78
2021/01/22 07:54:05;;;;;;;4.53;2.30;;;5.90;82.80;;;;;;5009867;28;20193;-79
2021/01/22 07:56:50;;;;;;;3.20;1.87;;;5.90;82.60;;;;;;5024010;28;20500;-78
2021/01/22 07:59:16;;;;;;;4.27;2.47;;;6.00;82.40;;;;;;5039484;28;20432;-77
2021/01/22 08:01:42;;;;;;;4.50;2.03;;;6.00;82.30;;;;;;5054333;28;20432;-78
2021/01/22 08:04:08;;;;;;;3.47;1.80;;;6.00;82.10;;;;;;5058972;28;20409;-78
2021/01/22 08:06:48;;;;;;;3.80;2.37;;;6.00;81.90;;;;;;5034975;28;20803;-78
2021/01/22 08:09:14;;;;;;;3.80;2.43;;;6.00;81.70;;;;;;5033850;28;20460;-79
2021/01/22 08:11:40;;;;;;;4.40;2.00;;;6.00;81.30;;;;;;5035516;28;20421;-78
2021/01/22 08:14:07;;;;;;;3.40;1.60;;;6.00;81.50;;;;;;5054413;28;20458;-78
2021/01/22 08:16:34;;;;;;;4.03;1.60;;;6.10;81.30;;;;;;5042598;28;20708;-78
2021/01/22 08:19:00;;;;;;;3.40;1.83;;;6.10;81.10;;;;;;5063216;28;20747;-80
2021/01/22 08:21:30;;;;;;;2.20;1.80;;;6.10;80.80;;;;;;5047187;28;20463;-78
2021/01/22 08:23:59;;;;;;;5.73;1.40;;;6.10;81.10;;;;;;5065263;28;20420;-79
2021/01/22 08:26:28;;;;;;;2.47;1.47;;;6.10;80.90;;;;;;5045768;28;20413;-78
2021/01/22 08:28:56;;;;;;;4.23;1.80;;;6.10;80.80;;;;;;5037270;28;20571;-79
2021/01/22 08:31:22;;;;;;;1.93;1.30;;;6.10;80.80;;;;;;5039696;28;20517;-77
2021/01/22 08:33:48;;;;;;;7.80;1.97;;;6.20;80.70;;;;;;5018320;28;20412;-78
2021/01/22 08:36:15;;;;;;;2.80;1.70;;;6.20;80.60;;;;;;5035471;28;20495;-78
2021/01/22 08:38:41;;;;;;;4.13;2.17;;;6.30;80.40;;;;;;5036610;28;20475;-78
2021/01/22 08:41:06;;;;;;;2.00;1.40;;;6.30;80.20;;;;;;5053001;28;20448;-79
2021/01/22 08:43:52;;;;;;;5.90;2.43;;;6.30;79.60;;;;;;5039714;28;20200;-79
2021/01/22 08:46:20;;;;;;;4.87;1.43;;;6.40;79.80;;;;;;5060037;28;20340;-79
2021/01/22 08:48:47;;;;;;;4.20;2.20;;;6.30;79.60;;;;;;5026125;28;20906;-79
2021/01/22 08:51:29;;;;;;;4.37;2.13;;;6.40;79.50;;;;;;5017496;28;20457;-79
2021/01/22 08:53:56;;;;;;;2.70;2.10;;;6.40;79.20;;;;;;5053565;28;20416;-80
2021/01/22 08:56:22;;;;;;;3.73;2.07;;;6.40;79.30;;;;;;5047005;28;20431;-79
2021/01/22 08:59:09;;;;;;;4.40;1.90;;;6.50;79.10;;;;;;5062450;28;20424;-79
2021/01/22 09:01:58;;;;;;;2.70;1.70;;;6.60;78.70;;;;;;5063284;28;20467;-79
2021/01/22 09:04:33;;;;;;;5.23;2.20;;;6.70;78.50;;;;;;5060074;28;20417;-80
2021/01/22 09:07:04;;;;;;;2.50;1.90;;;6.80;78.30;;;;;;5055104;28;20423;-80
2021/01/22 09:09:50;;;;;;;4.33;2.20;;;6.80;77.80;;;;;;5075126;28;20620;-78
2021/01/22 09:12:30;;;;;;;5.50;2.57;;;6.80;77.00;;;;;;5037734;28;20445;-79
2021/01/22 09:14:57;;;;;;;3.63;2.30;;;6.80;77.40;;;;;;5050959;28;20420;-79
2021/01/22 09:17:30;;;;;;;11.27;2.70;;;6.80;76.70;;;;;;5056054;28;20429;-80
2021/01/22 09:20:02;;;;;;;6.93;2.50;;;6.80;76.80;;;;;;5039911;28;20424;-78
2021/01/22 09:22:30;;;;;;;6.57;2.10;;;6.90;77.20;;;;;;5054563;28;20487;-78
2021/01/22 09:24:57;;;;;;;5.33;2.23;;;7.00;76.50;;;;;;5052372;28;20446;-79
2021/01/22 09:27:23;;;;;;;7.33;3.20;;;7.00;75.40;;;;;;5066491;28;20420;-80
2021/01/22 09:29:54;;;;;;;3.40;1.87;;;7.00;75.90;;;;;;5064636;28;20470;-83
2021/01/22 09:32:29;;;;;;;10.10;2.27;;;7.00;76.10;;;;;;5059226;28;20238;-78
2021/01/22 09:34:56;;;;;;;10.33;2.67;;;7.10;76.10;;;;;;5038986;28;20427;-78
2021/01/22 09:37:22;;;;;;;5.40;2.10;;;7.20;75.10;;;;;;5032820;28;20185;-79
2021/01/22 09:39:48;;;;;;;9.50;2.23;;;7.40;75.10;;;;;;5028543;28;20436;-79
2021/01/22 09:42:14;;;;;;;4.80;2.20;;;7.50;73.30;;;;;;5067943;28;20439;-80
2021/01/22 09:44:39;;;;;;;2.67;1.70;;;7.60;73.00;;;;;;5044949;28;20212;-81
2021/01/22 09:47:05;;;;;;;4.07;1.93;;;7.80;72.50;;;;;;5051810;28;20695;-81
2021/01/22 09:49:31;;;;;;;5.40;2.47;;;7.90;71.20;;;;;;5051171;28;20198;-80
2021/01/22 09:51:57;;;;;;;5.93;2.37;;;7.90;71.10;;;;;;5069653;28;20215;-80
2021/01/22 09:54:22;;;;;;;2.47;1.70;;;7.90;70.60;;;;;;5068228;28;20181;-79
2021/01/22 09:56:48;;;;;;;5.30;1.63;;;7.80;71.20;;;;;;5054394;28;20167;-80
2021/01/22 09:59:14;;;;;;;5.20;2.33;;;7.70;71.70;;;;;;5053602;28;20249;-82
2021/01/22 10:01:40;;;;;;;3.50;2.53;;;7.70;72.30;;;;;;5055694;28;20452;-79
2021/01/22 10:04:05;;;;;;;3.57;1.97;;;7.70;71.80;;;;;;5069104;28;20189;-79
2021/01/22 10:06:32;;;;;;;4.70;1.63;;;7.70;72.30;;;;;;5040470;28;20177;-80
2021/01/22 10:08:58;;;;;;;3.70;2.30;;;7.80;71.70;;;;;;5030973;28;20209;-81
2021/01/22 10:11:26;;;;;;;6.13;1.77;;;8.00;71.80;;;;;;5064814;28;21097;-80
2021/01/22 10:13:55;;;;;;;3.17;1.80;;;8.20;72.00;;;;;;5050436;28;20399;-80
2021/01/22 10:16:25;;;;;;;8.73;1.93;;;8.40;69.60;;;;;;5065047;28;20421;-79
2021/01/22 10:18:53;;;;;;;9.10;1.87;;;8.50;68.90;;;;;;5064119;28;20454;-82
2021/01/22 10:21:20;;;;;;;8.40;2.60;;;8.60;69.00;;;;;;5034253;28;20441;-82
2021/01/22 10:23:47;;;;;;;5.03;1.80;;;8.70;68.40;;;;;;5063354;28;20462;-81
2021/01/22 10:26:13;;;;;;;5.40;2.30;;;8.70;68.00;;;;;;5068425;28;20416;-82
2021/01/22 10:28:39;;;;;;;5.70;4.40;;;8.70;67.80;;;;;;5050192;28;20499;-80
2021/01/22 10:31:05;;;;;;;7.17;2.00;;;8.80;68.00;;;;;;5090146;23;20232;-79
2021/01/22 10:33:31;;;;;;;3.97;2.27;;;8.80;67.30;;;;;;5090749;28;20546;-79
2021/01/22 10:35:57;;;;;;;4.77;1.97;;;8.70;66.70;;;;;;5071759;28;20435;-80
2021/01/22 10:38:23;;;;;;;7.13;2.60;;;8.50;67.10;;;;;;5053957;28;20177;-79
2021/01/22 10:40:49;;;;;;;5.70;3.30;;;8.40;67.90;;;;;;5067093;28;20228;-79
2021/01/22 10:43:14;;;;;;;9.23;2.47;;;8.20;68.90;;;;;;5093632;28;20414;-79
2021/01/22 10:45:40;;;;;;;11.33;1.97;;;8.20;69.00;;;;;;5088896;28;20419;-80
2021/01/22 10:48:06;;;;;;;11.53;2.17;;;8.20;69.80;;;;;;5089194;28;20616;-80
2021/01/22 10:50:32;;;;;;;3.70;2.97;;;8.20;69.90;;;;;;5089440;28;20184;-80
2021/01/22 10:52:58;;;;;;;4.00;1.73;;;8.30;69.10;;;;;;5088201;28;20412;-80
2021/01/22 10:55:23;;;;;;;6.70;2.30;;;8.20;68.90;;;;;;5073020;28;20149;-80
2021/01/22 10:57:49;;;;;;;4.00;1.90;;;8.20;69.00;;;;;;5071495;28;20173;-80
2021/01/22 11:00:15;;;;;;;4.50;1.93;;;8.20;68.50;;;;;;5073957;28;20169;-81
2021/01/22 11:02:43;;;;;;;8.87;2.20;;;8.30;68.90;;;;;;5088199;28;20259;-79
2021/01/22 11:05:09;;;;;;;7.27;2.00;;;8.40;68.30;;;;;;5067867;28;20431;-78
2021/01/22 11:07:35;;;;;;;4.50;2.27;;;8.40;68.30;;;;;;5067521;28;20492;-79
2021/01/22 11:10:00;;;;;;;7.70;2.13;;;8.60;68.70;;;;;;5084510;28;20558;-80
2021/01/22 11:12:26;;;;;;;8.70;2.33;;;8.70;67.70;;;;;;5085945;28;20185;-79
2021/01/22 11:14:52;;;;;;;7.13;3.10;;;8.70;67.90;;;;;;5067996;28;20173;-78
2021/01/22 11:17:18;;;;;;;5.53;2.80;;;8.80;67.50;;;;;;5079612;28;20165;-77
2021/01/22 11:19:43;;;;;;;4.70;2.47;;;8.90;67.30;;;;;;5081868;28;20459;-77
2021/01/22 11:22:09;;;;;;;9.87;2.50;;;9.00;66.70;;;;;;5062487;28;20347;-78
2021/01/22 11:24:35;;;;;;;6.27;2.40;;;9.00;66.10;;;;;;5087790;28;20153;-78
2021/01/22 11:27:01;;;;;;;7.17;2.57;;;9.10;66.20;;;;;;5074472;28;20182;-77
2021/01/22 11:29:27;;;;;;;6.93;2.33;;;9.20;66.70;;;;;;5074611;28;20486;-78
2021/01/22 11:31:53;;;;;;;6.70;2.20;;;9.10;63.70;;;;;;5074663;28;20464;-77
2021/01/22 11:34:18;;;;;;;4.80;2.63;;;9.10;65.70;;;;;;5082859;28;20173;-79
2021/01/22 11:36:44;;;;;;;4.00;2.03;;;9.10;65.20;;;;;;5080319;28;20555;-77
2021/01/22 11:39:10;;;;;;;7.80;2.70;;;9.00;64.90;;;;;;5081043;28;20203;-77
2021/01/22 11:41:35;;;;;;;9.50;2.17;;;8.90;65.90;;;;;;5061559;28;20538;-77
2021/01/22 11:44:01;;;;;;;4.67;2.27;;;8.90;65.70;;;;;;5062586;28;20181;-78
2021/01/22 11:46:27;;;;;;;10.00;2.27;;;8.90;65.40;;;;;;5063690;28;20173;-78
2021/01/22 11:48:52;;;;;;;6.87;2.90;;;8.80;64.50;;;;;;5080406;28;20185;-77
2021/01/22 11:51:19;;;;;;;4.97;1.97;;;8.80;64.70;;;;;;5065833;28;20204;-80
2021/01/22 11:53:46;;;;;;;5.77;2.50;;;8.80;64.70;;;;;;5088501;28;20169;-79
2021/01/22 11:56:11;;;;;;;6.50;2.50;;;8.90;64.50;;;;;;5088402;28;20394;-76
2021/01/22 11:58:37;;;;;;;10.30;2.80;;;8.90;64.40;;;;;;5083341;28;20435;-79
2021/01/22 12:01:04;;;;;;;2.03;1.80;;;9.00;64.50;;;;;;5089842;28;20381;-79
2021/01/22 12:03:30;;;;;;;3.50;1.97;;;8.90;63.50;;;;;;5066767;28;20180;-79
2021/01/22 12:05:55;;;;;;;4.97;2.40;;;8.80;63.90;;;;;;5087861;28;20455;-77
2021/01/22 12:08:22;;;;;;;5.27;3.07;;;8.70;64.50;;;;;;5067376;28;20189;-79
2021/01/22 12:10:48;;;;;;;6.23;3.30;;;8.70;64.70;;;;;;5070076;28;20450;-76
2021/01/22 12:13:13;;;;;;;3.80;2.23;;;8.70;64.60;;;;;;5086974;28;20509;-79
2021/01/22 12:15:39;;;;;;;7.37;3.30;;;8.70;65.00;;;;;;5085229;28;20177;-78
2021/01/22 12:18:05;;;;;;;6.07;2.40;;;8.70;65.30;;;;;;5084653;28;20183;-81
2021/01/22 12:20:31;;;;;;;3.67;2.20;;;8.80;64.40;;;;;;5065858;28;20173;-78
2021/01/22 12:22:56;;;;;;;6.43;3.10;;;8.80;63.70;;;;;;5070813;28;20158;-77
2021/01/22 12:25:22;;;;;;;5.40;3.10;;;8.90;63.70;;;;;;5067151;28;20208;-77
2021/01/22 12:27:47;;;;;;;7.27;3.07;;;8.90;63.50;;;;;;5063909;28;20185;-79
2021/01/22 12:30:14;;;;;;;10.57;4.10;;;8.90;63.30;;;;;;5051438;28;20628;-78
2021/01/22 12:32:39;;;;;;;13.13;4.27;;;8.90;63.10;;;;;;5076185;28;20662;-77
2021/01/22 12:35:06;;;;;;;11.57;6.00;;;8.90;62.50;;;;;;5073392;28;20434;-79
2021/01/22 12:37:31;;;;;;;11.37;5.17;;;8.90;62.50;;;;;;5088851;28;20169;-78
2021/01/22 12:39:58;;;;;;;9.47;3.50;;;8.90;62.80;;;;;;5076106;28;20456;-78
2021/01/22 12:42:23;;;;;;;16.23;5.33;;;9.00;63.00;;;;;;5089506;28;20276;-78
2021/01/22 12:44:49;;;;;;;11.00;6.97;;;8.90;62.70;;;;;;5090053;28;20422;-79
2021/01/22 12:47:15;;;;;;;7.30;3.50;;;8.90;63.50;;;;;;5069341;28;20502;-77
2021/01/22 12:49:40;;;;;;;8.53;2.40;;;8.90;63.10;;;;;;5055257;28;20196;-78
2021/01/22 12:52:06;;;;;;;8.47;2.90;;;8.90;63.20;;;;;;5088394;28;20208;-77
2021/01/22 12:54:32;;;;;;;5.10;2.63;;;8.90;63.70;;;;;;5068719;28;20172;-77
2021/01/22 12:56:58;;;;;;;8.03;3.00;;;8.90;63.10;;;;;;5068711;28;20200;-79
2021/01/22 12:59:24;;;;;;;2.77;2.47;;;8.90;63.20;;;;;;5071507;28;21034;-79
2021/01/22 13:01:50;;;;;;;3.50;2.67;;;8.90;62.80;;;;;;5080766;28;20192;-77